Aérodrome :
LOGIN :

S'inscrire | Disclaimer

   EN    FR    IT 

 










Légende :    VFR   VFR Marginal   IFR   IFR Intensif   IFR Très Intensif
Visi : 
Plafond : 
>= 8 km
>= 3000ft
5 à 8 km
1000 à 3000 ft
1500m à 5 km
500 à 1000 ft
800 à 1500m
200 à 500 ft
< 800m
< 200 ft
Symboles :   Orages  Brouillard  Fortes neiges  Fortes précipitations  Vent > 20 kt
SIGMETs :   Divers  Orages  Givrage  Turbulence  Onde Orograph.  Cendres Volcan.






- Altitude de l'aérodrome : 257 ft
- Code IATA : MAN


EGCC - Manchester

DERNIER METAR :
  • 280020Z AUTO 21007KT 9999 SCT014/// SCT019/// BKN029/// //////TCU 04/03 Q0986 RESHRA TEMPO SHRA

METARs EXPIRÉS :
  • 272350Z 20010KT 180V240 7000 SHRA SCT011TCU BKN016 04/03 Q0986 TEMPO 4000 +SHRA BKN012
  • 272320Z AUTO 19006KT 140V220 9999 -RA SCT026/// BKN033/// //////TCU 05/03 Q0986 TEMPO SHRA
  • 272250Z AUTO 17005KT 110V200 9999 BKN027 04/03 Q0987 TEMPO SHRA
  • 272220Z AUTO 18006KT 120V210 9999 SCT027 BKN040 05/02 Q0987 TEMPO SHRA
  • 272150Z AUTO 19006KT 140V230 9999 -RA SCT022 BKN035 BKN047 05/03 Q0987 TEMPO SHRA
  • 272120Z AUTO 18006KT 110V230 9999 NCD 05/03 Q0988 TEMPO SHRA

TAF TAF EGCC
Valide du 28 à 00h jusqu'au 29 à 06h UTC


272258Z 2800/2906 19006KT 9999 FEW020
TEMPO 2800/2803 6000 SHRA
PROB30
TEMPO 2800/2803 20015G25KT 4000 +SHRA BKN012
BECMG 2803/2806 26012KT
TEMPO 2803/2811 26018G28KT 4000 SHRASN BKN006
PROB40
TEMPO 2803/2811 1400 SHSN BKN003
PROB30
TEMPO 2811/2906 7000 SHRA
ATIS : +44 161 499 2324



MET'MAP, la Météo Aéronautique d'un coup d'oeil ! - Copyright ORBIFLY Décembre 2007 - Disclaimer

ORBIFLY MET'MAP TEAM :

Programmation & Développement : Alexandra Zaïnal
Sur une idée originale de : Baudouin d'Aumeries
Assistance à la programmation : Marc-Olivier Méhu
Soutien technique & logistique : Manuel Goepfert

Contact : metmap@orbifly.com




SOURCES & CREDITS :

   NOAA